sensor_id;sensor_type;location;lat;lon;timestamp;pressure;altitude;pressure_sealevel;temperature;humidity
80853;BME280;70270;43.434;28.338;2024-02-21T00:00:52;100922.22;;;9.79;65.67
80853;BME280;70270;43.434;28.338;2024-02-21T00:03:37;100755.66;;;8.76;65.68
80853;BME280;70270;43.434;28.338;2024-02-21T00:06:21;100920.06;;;9.74;65.87
80853;BME280;70270;43.434;28.338;2024-02-21T00:09:06;100930.38;;;9.71;66.43
80853;BME280;70270;43.434;28.338;2024-02-21T00:11:50;100922.94;;;9.73;66.03
80853;BME280;70270;43.434;28.338;2024-02-21T00:14:35;100876.72;;;9.44;65.87
80853;BME280;70270;43.434;28.338;2024-02-21T00:17:19;100918.25;;;9.67;66.25
80853;BME280;70270;43.434;28.338;2024-02-21T00:20:04;100776.56;;;8.90;66.41
80853;BME280;70270;43.434;28.338;2024-02-21T00:22:49;100896.63;;;9.59;65.96
80853;BME280;70270;43.434;28.338;2024-02-21T00:25:33;100720.75;;;8.58;65.53
80853;BME280;70270;43.434;28.338;2024-02-21T00:28:18;100868.78;;;9.50;65.39
80853;BME280;70270;43.434;28.338;2024-02-21T00:31:03;100912.84;;;9.67;65.78
80853;BME280;70270;43.434;28.338;2024-02-21T00:33:47;100918.38;;;9.73;66.16
80853;BME280;70270;43.434;28.338;2024-02-21T00:36:31;100747.88;;;8.81;65.65
80853;BME280;70270;43.434;28.338;2024-02-21T00:39:16;100918.66;;;9.86;65.85
80853;BME280;70270;43.434;28.338;2024-02-21T00:42:01;100880.38;;;9.67;66.09
80853;BME280;70270;43.434;28.338;2024-02-21T00:44:45;100879.69;;;9.65;66.13
80853;BME280;70270;43.434;28.338;2024-02-21T00:47:29;100925.06;;;9.94;65.77
80853;BME280;70270;43.434;28.338;2024-02-21T00:50:14;100898.91;;;9.78;65.56
80853;BME280;70270;43.434;28.338;2024-02-21T00:52:58;100904.94;;;9.88;65.41
80853;BME280;70270;43.434;28.338;2024-02-21T00:55:43;100911.31;;;9.95;65.60
80853;BME280;70270;43.434;28.338;2024-02-21T00:58:27;100900.00;;;9.92;66.10
80853;BME280;70270;43.434;28.338;2024-02-21T01:01:12;100919.91;;;10.07;65.59
80853;BME280;70270;43.434;28.338;2024-02-21T01:03:57;100731.88;;;9.10;63.98
80853;BME280;70270;43.434;28.338;2024-02-21T01:06:42;100887.63;;;9.97;63.99
80853;BME280;70270;43.434;28.338;2024-02-21T01:09:28;100879.44;;;9.82;65.13
80853;BME280;70270;43.434;28.338;2024-02-21T01:12:12;100859.91;;;9.64;64.78
80853;BME280;70270;43.434;28.338;2024-02-21T01:14:57;100857.19;;;9.64;65.03
80853;BME280;70270;43.434;28.338;2024-02-21T01:17:41;100805.59;;;9.35;65.53
80853;BME280;70270;43.434;28.338;2024-02-21T01:20:26;100931.00;;;9.89;65.72
80853;BME280;70270;43.434;28.338;2024-02-21T01:23:10;100900.81;;;10.00;65.35
80853;BME280;70270;43.434;28.338;2024-02-21T01:25:55;100901.50;;;10.02;65.45
80853;BME280;70270;43.434;28.338;2024-02-21T01:28:40;100894.53;;;10.00;65.08
80853;BME280;70270;43.434;28.338;2024-02-21T01:31:24;100932.66;;;9.98;65.78
80853;BME280;70270;43.434;28.338;2024-02-21T01:34:09;100845.59;;;9.48;65.75
80853;BME280;70270;43.434;28.338;2024-02-21T01:36:53;100897.97;;;9.94;65.95
80853;BME280;70270;43.434;28.338;2024-02-21T01:39:38;100861.09;;;9.62;65.86
80853;BME280;70270;43.434;28.338;2024-02-21T01:42:22;100899.09;;;9.68;66.94
80853;BME280;70270;43.434;28.338;2024-02-21T01:45:07;100884.16;;;9.50;67.05
80853;BME280;70270;43.434;28.338;2024-02-21T01:47:52;100839.25;;;9.32;67.53
80853;BME280;70270;43.434;28.338;2024-02-21T01:50:37;100889.53;;;9.58;67.46
80853;BME280;70270;43.434;28.338;2024-02-21T01:53:24;100716.03;;;8.52;67.65
80853;BME280;70270;43.434;28.338;2024-02-21T01:56:10;100884.78;;;9.60;67.86
80853;BME280;70270;43.434;28.338;2024-02-21T01:58:55;100883.44;;;9.56;67.75
80853;BME280;70270;43.434;28.338;2024-02-21T02:01:40;100850.00;;;9.49;67.29
80853;BME280;70270;43.434;28.338;2024-02-21T02:04:26;100871.28;;;9.52;67.10
80853;BME280;70270;43.434;28.338;2024-02-21T02:07:11;100892.50;;;9.71;67.37
80853;BME280;70270;43.434;28.338;2024-02-21T02:09:55;100873.25;;;9.66;66.61
80853;BME280;70270;43.434;28.338;2024-02-21T02:12:40;100834.53;;;9.34;66.67
80853;BME280;70270;43.434;28.338;2024-02-21T02:15:24;100817.38;;;9.03;67.63
80853;BME280;70270;43.434;28.338;2024-02-21T02:18:09;100877.47;;;9.29;68.14
80853;BME280;70270;43.434;28.338;2024-02-21T02:20:54;100873.13;;;9.04;69.00
80853;BME280;70270;43.434;28.338;2024-02-21T02:23:39;100854.59;;;8.77;69.68
80853;BME280;70270;43.434;28.338;2024-02-21T02:26:23;100851.91;;;8.69;70.05
80853;BME280;70270;43.434;28.338;2024-02-21T02:29:08;100848.53;;;8.67;70.17
80853;BME280;70270;43.434;28.338;2024-02-21T02:31:52;100876.88;;;8.79;70.53
80853;BME280;70270;43.434;28.338;2024-02-21T02:34:38;100891.72;;;8.99;69.66
80853;BME280;70270;43.434;28.338;2024-02-21T02:37:22;100882.81;;;8.90;70.24
80853;BME280;70270;43.434;28.338;2024-02-21T02:40:07;100923.16;;;8.92;70.72
80853;BME280;70270;43.434;28.338;2024-02-21T02:42:52;100902.53;;;8.83;70.75
80853;BME280;70270;43.434;28.338;2024-02-21T02:45:39;100805.69;;;8.31;70.91
80853;BME280;70270;43.434;28.338;2024-02-21T02:48:23;100850.94;;;8.54;71.39
80853;BME280;70270;43.434;28.338;2024-02-21T02:51:08;100895.66;;;8.64;71.28
80853;BME280;70270;43.434;28.338;2024-02-21T02:53:52;100828.63;;;8.52;71.03
80853;BME280;70270;43.434;28.338;2024-02-21T02:56:37;100558.88;;;6.98;71.09
80853;BME280;70270;43.434;28.338;2024-02-21T02:59:21;100855.97;;;8.65;71.12
80853;BME280;70270;43.434;28.338;2024-02-21T03:02:06;100892.53;;;9.16;70.91
80853;BME280;70270;43.434;28.338;2024-02-21T03:04:50;100691.47;;;7.98;71.16
80853;BME280;70270;43.434;28.338;2024-02-21T03:07:34;100885.91;;;9.34;70.28
80853;BME280;70270;43.434;28.338;2024-02-21T03:10:19;100877.50;;;9.21;69.88
80853;BME280;70270;43.434;28.338;2024-02-21T03:13:03;100894.00;;;9.43;70.46
80853;BME280;70270;43.434;28.338;2024-02-21T03:15:47;100893.44;;;9.47;70.04
80853;BME280;70270;43.434;28.338;2024-02-21T03:18:32;100900.69;;;9.63;69.87
80853;BME280;70270;43.434;28.338;2024-02-21T03:21:16;100840.09;;;9.33;69.81
80853;BME280;70270;43.434;28.338;2024-02-21T03:24:01;100845.38;;;9.26;68.67
80853;BME280;70270;43.434;28.338;2024-02-21T03:26:45;100841.97;;;8.69;69.91
80853;BME280;70270;43.434;28.338;2024-02-21T03:29:32;100890.06;;;8.82;70.49
80853;BME280;70270;43.434;28.338;2024-02-21T03:32:16;100892.28;;;8.54;71.50
80853;BME280;70270;43.434;28.338;2024-02-21T03:35:00;100722.84;;;7.67;71.46
80853;BME280;70270;43.434;28.338;2024-02-21T03:37:45;100886.34;;;8.83;71.54
80853;BME280;70270;43.434;28.338;2024-02-21T03:40:30;100906.28;;;8.82;71.42
80853;BME280;70270;43.434;28.338;2024-02-21T03:43:14;100748.97;;;7.99;70.88
80853;BME280;70270;43.434;28.338;2024-02-21T03:45:59;100905.22;;;9.07;71.34
80853;BME280;70270;43.434;28.338;2024-02-21T03:48:43;100869.09;;;9.00;71.33
80853;BME280;70270;43.434;28.338;2024-02-21T03:51:27;100865.72;;;9.06;70.63
80853;BME280;70270;43.434;28.338;2024-02-21T03:54:12;100855.84;;;9.21;70.82
80853;BME280;70270;43.434;28.338;2024-02-21T03:56:56;100754.31;;;8.72;70.12
80853;BME280;70270;43.434;28.338;2024-02-21T03:59:41;100859.13;;;9.48;69.20
80853;BME280;70270;43.434;28.338;2024-02-21T04:02:25;100893.63;;;9.84;68.51
80853;BME280;70270;43.434;28.338;2024-02-21T04:05:10;100893.41;;;9.55;67.88
80853;BME280;70270;43.434;28.338;2024-02-21T04:07:55;100858.91;;;9.18;68.67
80853;BME280;70270;43.434;28.338;2024-02-21T04:10:39;100847.13;;;8.95;69.68
80853;BME280;70270;43.434;28.338;2024-02-21T04:13:24;100682.38;;;7.75;70.74
80853;BME280;70270;43.434;28.338;2024-02-21T04:16:10;100871.84;;;8.52;72.13
80853;BME280;70270;43.434;28.338;2024-02-21T04:18:54;100891.59;;;8.44;72.92
80853;BME280;70270;43.434;28.338;2024-02-21T04:21:38;100910.09;;;8.23;73.89
80853;BME280;70270;43.434;28.338;2024-02-21T04:24:23;100886.97;;;8.04;74.79
80853;BME280;70270;43.434;28.338;2024-02-21T04:27:07;100893.69;;;8.00;75.72
80853;BME280;70270;43.434;28.338;2024-02-21T04:29:53;100563.16;;;6.08;74.89
80853;BME280;70270;43.434;28.338;2024-02-21T04:32:37;100718.50;;;7.08;74.68
80853;BME280;70270;43.434;28.338;2024-02-21T04:35:22;100888.19;;;8.18;75.01
80853;BME280;70270;43.434;28.338;2024-02-21T04:38:06;100871.78;;;8.19;74.24
80853;BME280;70270;43.434;28.338;2024-02-21T04:40:51;100873.16;;;8.23;73.84
80853;BME280;70270;43.434;28.338;2024-02-21T04:43:35;100891.25;;;8.55;73.98
80853;BME280;70270;43.434;28.338;2024-02-21T04:46:20;100889.06;;;8.59;73.25
80853;BME280;70270;43.434;28.338;2024-02-21T04:49:04;100828.13;;;8.32;72.99
80853;BME280;70270;43.434;28.338;2024-02-21T04:51:49;100881.28;;;8.64;73.24
80853;BME280;70270;43.434;28.338;2024-02-21T04:54:33;100894.44;;;8.75;72.75
80853;BME280;70270;43.434;28.338;2024-02-21T04:57:19;100860.69;;;8.63;72.83
80853;BME280;70270;43.434;28.338;2024-02-21T05:00:05;100917.41;;;8.87;72.12
80853;BME280;70270;43.434;28.338;2024-02-21T05:02:49;100693.00;;;7.52;72.72
80853;BME280;70270;43.434;28.338;2024-02-21T05:05:34;100860.53;;;8.48;73.40
80853;BME280;70270;43.434;28.338;2024-02-21T05:08:20;100855.13;;;8.40;73.15
80853;BME280;70270;43.434;28.338;2024-02-21T05:11:04;100919.44;;;8.44;73.45
80853;BME280;70270;43.434;28.338;2024-02-21T05:13:49;100856.09;;;8.15;73.94
80853;BME280;70270;43.434;28.338;2024-02-21T05:16:34;100910.00;;;8.49;74.24
80853;BME280;70270;43.434;28.338;2024-02-21T05:19:18;100927.91;;;8.66;73.80
80853;BME280;70270;43.434;28.338;2024-02-21T05:22:03;100809.69;;;8.11;73.75
80853;BME280;70270;43.434;28.338;2024-02-21T05:24:47;100905.59;;;8.64;73.79
80853;BME280;70270;43.434;28.338;2024-02-21T05:27:32;100812.09;;;8.06;73.07
80853;BME280;70270;43.434;28.338;2024-02-21T05:30:16;100942.94;;;8.84;72.82
80853;BME280;70270;43.434;28.338;2024-02-21T05:33:05;100726.72;;;7.81;73.26
80853;BME280;70270;43.434;28.338;2024-02-21T05:35:50;100929.03;;;9.12;72.57
80853;BME280;70270;43.434;28.338;2024-02-21T05:38:35;100895.63;;;8.88;71.46
80853;BME280;70270;43.434;28.338;2024-02-21T05:41:19;100783.06;;;8.40;71.72
80853;BME280;70270;43.434;28.338;2024-02-21T05:44:04;100933.56;;;9.27;71.56
80853;BME280;70270;43.434;28.338;2024-02-21T05:46:48;100943.34;;;9.36;71.14
80853;BME280;70270;43.434;28.338;2024-02-21T05:49:33;100940.81;;;9.35;71.24
80853;BME280;70270;43.434;28.338;2024-02-21T05:52:17;100916.69;;;9.17;70.91
80853;BME280;70270;43.434;28.338;2024-02-21T05:55:02;100895.47;;;8.98;71.36
80853;BME280;70270;43.434;28.338;2024-02-21T05:57:46;100950.50;;;9.21;71.67
80853;BME280;70270;43.434;28.338;2024-02-21T06:00:30;100814.97;;;8.37;71.89
80853;BME280;70270;43.434;28.338;2024-02-21T06:03:15;100944.75;;;9.08;72.51
80853;BME280;70270;43.434;28.338;2024-02-21T06:06:00;100945.47;;;8.94;73.09
80853;BME280;70270;43.434;28.338;2024-02-21T06:08:45;100941.22;;;8.83;72.86
80853;BME280;70270;43.434;28.338;2024-02-21T06:11:29;100928.75;;;8.82;72.94
80853;BME280;70270;43.434;28.338;2024-02-21T06:14:14;100928.91;;;8.97;72.60
80853;BME280;70270;43.434;28.338;2024-02-21T06:16:58;100758.75;;;7.84;72.86
80853;BME280;70270;43.434;28.338;2024-02-21T06:19:43;100956.59;;;8.99;73.11
80853;BME280;70270;43.434;28.338;2024-02-21T06:22:30;100934.97;;;8.99;73.20
80853;BME280;70270;43.434;28.338;2024-02-21T06:25:15;100957.59;;;9.22;72.23
80853;BME280;70270;43.434;28.338;2024-02-21T06:27:59;100778.34;;;8.02;73.15
80853;BME280;70270;43.434;28.338;2024-02-21T06:30:44;100921.78;;;8.96;72.56
80853;BME280;70270;43.434;28.338;2024-02-21T06:33:28;100954.03;;;9.22;72.39
80853;BME280;70270;43.434;28.338;2024-02-21T06:36:12;100941.91;;;9.02;72.73
80853;BME280;70270;43.434;28.338;2024-02-21T06:38:58;100958.97;;;9.18;72.83
80853;BME280;70270;43.434;28.338;2024-02-21T06:41:43;100954.94;;;8.98;73.27
80853;BME280;70270;43.434;28.338;2024-02-21T06:44:28;100972.50;;;8.86;73.61
80853;BME280;70270;43.434;28.338;2024-02-21T06:47:13;100930.41;;;8.83;73.51
80853;BME280;70270;43.434;28.338;2024-02-21T06:49:57;100922.16;;;8.85;73.30
80853;BME280;70270;43.434;28.338;2024-02-21T06:52:42;100851.41;;;8.25;73.54
80853;BME280;70270;43.434;28.338;2024-02-21T06:55:26;100914.53;;;8.88;73.35
80853;BME280;70270;43.434;28.338;2024-02-21T06:58:11;100937.69;;;8.67;73.67
80853;BME280;70270;43.434;28.338;2024-02-21T07:00:56;100898.13;;;8.25;73.92
80853;BME280;70270;43.434;28.338;2024-02-21T07:03:40;100965.72;;;8.66;75.04
80853;BME280;70270;43.434;28.338;2024-02-21T07:06:25;100967.09;;;8.62;75.44
80853;BME280;70270;43.434;28.338;2024-02-21T07:09:09;100970.44;;;8.64;75.30
80853;BME280;70270;43.434;28.338;2024-02-21T07:11:54;100928.56;;;8.68;74.22
80853;BME280;70270;43.434;28.338;2024-02-21T07:14:39;100936.31;;;8.71;74.17
80853;BME280;70270;43.434;28.338;2024-02-21T07:17:23;100932.97;;;8.85;73.26
80853;BME280;70270;43.434;28.338;2024-02-21T07:20:08;100784.75;;;7.93;74.20
80853;BME280;70270;43.434;28.338;2024-02-21T07:22:52;100953.56;;;8.94;73.74
80853;BME280;70270;43.434;28.338;2024-02-21T07:25:37;100945.47;;;8.94;73.20
80853;BME280;70270;43.434;28.338;2024-02-21T07:28:21;100910.00;;;8.57;73.41
80853;BME280;70270;43.434;28.338;2024-02-21T07:31:05;100956.28;;;8.94;74.29
80853;BME280;70270;43.434;28.338;2024-02-21T07:33:50;100909.50;;;8.45;74.25
80853;BME280;70270;43.434;28.338;2024-02-21T07:36:35;100803.78;;;7.91;73.96
80853;BME280;70270;43.434;28.338;2024-02-21T07:39:21;100791.31;;;8.07;73.54
80853;BME280;70270;43.434;28.338;2024-02-21T07:42:06;100919.22;;;9.11;72.60
80853;BME280;70270;43.434;28.338;2024-02-21T07:44:50;100960.00;;;8.93;73.00
80853;BME280;70270;43.434;28.338;2024-02-21T07:47:35;100978.41;;;8.89;72.79
80853;BME280;70270;43.434;28.338;2024-02-21T07:50:20;100951.53;;;9.04;72.66
80853;BME280;70270;43.434;28.338;2024-02-21T07:53:04;100958.97;;;8.78;72.77
80853;BME280;70270;43.434;28.338;2024-02-21T07:55:49;100947.97;;;8.87;72.50
80853;BME280;70270;43.434;28.338;2024-02-21T07:58:33;100958.78;;;8.87;72.55
80853;BME280;70270;43.434;28.338;2024-02-21T08:01:18;100957.28;;;8.93;72.49
80853;BME280;70270;43.434;28.338;2024-02-21T08:04:05;100958.78;;;8.87;73.46
80853;BME280;70270;43.434;28.338;2024-02-21T08:06:53;100964.88;;;8.65;73.63
80853;BME280;70270;43.434;28.338;2024-02-21T08:09:39;100820.00;;;7.99;73.87
80853;BME280;70270;43.434;28.338;2024-02-21T08:12:24;100955.94;;;9.05;73.06
80853;BME280;70270;43.434;28.338;2024-02-21T08:15:09;100955.25;;;8.79;73.42
80853;BME280;70270;43.434;28.338;2024-02-21T08:17:58;100745.94;;;7.53;73.34
80853;BME280;70270;43.434;28.338;2024-02-21T08:20:45;100961.34;;;8.97;73.60
80853;BME280;70270;43.434;28.338;2024-02-21T08:23:30;100970.56;;;9.27;72.66
80853;BME280;70270;43.434;28.338;2024-02-21T08:26:15;100969.69;;;9.59;71.85
80853;BME280;70270;43.434;28.338;2024-02-21T08:28:59;100867.75;;;8.96;71.60
80853;BME280;70270;43.434;28.338;2024-02-21T08:31:44;100827.13;;;8.57;71.86
80853;BME280;70270;43.434;28.338;2024-02-21T08:34:29;100629.75;;;7.06;72.86
80853;BME280;70270;43.434;28.338;2024-02-21T08:37:14;100984.97;;;9.03;73.02
80853;BME280;70270;43.434;28.338;2024-02-21T08:39:59;100868.63;;;8.56;73.43
80853;BME280;70270;43.434;28.338;2024-02-21T08:42:49;100971.28;;;9.05;73.83
80853;BME280;70270;43.434;28.338;2024-02-21T08:45:33;100967.41;;;8.83;74.61
80853;BME280;70270;43.434;28.338;2024-02-21T08:48:18;100851.78;;;8.30;74.20
80853;BME280;70270;43.434;28.338;2024-02-21T08:51:03;100944.78;;;8.68;75.31
80853;BME280;70270;43.434;28.338;2024-02-21T08:53:48;100898.84;;;8.35;75.13
80853;BME280;70270;43.434;28.338;2024-02-21T08:56:35;100968.75;;;8.71;75.70
80853;BME280;70270;43.434;28.338;2024-02-21T08:59:19;100952.88;;;8.68;75.19
80853;BME280;70270;43.434;28.338;2024-02-21T09:02:04;100780.00;;;7.87;74.70
80853;BME280;70270;43.434;28.338;2024-02-21T09:04:49;100976.34;;;9.16;74.63
80853;BME280;70270;43.434;28.338;2024-02-21T09:07:33;100968.41;;;9.22;73.77
80853;BME280;70270;43.434;28.338;2024-02-21T09:10:18;100936.69;;;8.68;74.88
80853;BME280;70270;43.434;28.338;2024-02-21T09:13:02;100975.34;;;8.68;75.25
80853;BME280;70270;43.434;28.338;2024-02-21T09:15:48;100960.31;;;8.41;76.10
80853;BME280;70270;43.434;28.338;2024-02-21T09:18:32;100938.38;;;8.53;75.58
80853;BME280;70270;43.434;28.338;2024-02-21T09:21:17;100976.34;;;9.00;75.80
80853;BME280;70270;43.434;28.338;2024-02-21T09:24:01;100893.09;;;8.22;75.53
80853;BME280;70270;43.434;28.338;2024-02-21T09:26:47;100957.94;;;8.71;75.61
80853;BME280;70270;43.434;28.338;2024-02-21T09:29:31;100981.25;;;8.88;75.75
80853;BME280;70270;43.434;28.338;2024-02-21T09:32:18;100955.94;;;8.81;76.63
80853;BME280;70270;43.434;28.338;2024-02-21T09:35:03;100967.25;;;9.09;75.52
80853;BME280;70270;43.434;28.338;2024-02-21T09:37:49;100971.44;;;9.27;75.04
80853;BME280;70270;43.434;28.338;2024-02-21T09:40:33;100976.53;;;9.30;74.97
80853;BME280;70270;43.434;28.338;2024-02-21T09:43:23;100769.19;;;7.79;75.76
80853;BME280;70270;43.434;28.338;2024-02-21T09:46:08;100820.31;;;7.88;77.06
80853;BME280;70270;43.434;28.338;2024-02-21T09:49:38;100972.50;;;8.70;77.78
80853;BME280;70270;43.434;28.338;2024-02-21T09:52:22;100875.81;;;8.07;78.19
80853;BME280;70270;43.434;28.338;2024-02-21T09:55:08;100847.16;;;7.98;78.15
80853;BME280;70270;43.434;28.338;2024-02-21T09:57:57;100978.41;;;8.73;79.11
80853;BME280;70270;43.434;28.338;2024-02-21T10:00:42;100983.63;;;8.83;79.31
80853;BME280;70270;43.434;28.338;2024-02-21T10:03:27;100970.63;;;8.78;79.46
80853;BME280;70270;43.434;28.338;2024-02-21T10:06:12;100885.03;;;8.30;79.14
80853;BME280;70270;43.434;28.338;2024-02-21T10:08:56;100989.88;;;9.00;78.93
80853;BME280;70270;43.434;28.338;2024-02-21T10:11:41;100875.91;;;8.48;78.86
80853;BME280;70270;43.434;28.338;2024-02-21T10:14:25;100956.59;;;8.67;79.63
80853;BME280;70270;43.434;28.338;2024-02-21T10:17:16;100773.56;;;7.56;79.77
80853;BME280;70270;43.434;28.338;2024-02-21T10:20:09;100936.88;;;8.66;79.82
80853;BME280;70270;43.434;28.338;2024-02-21T10:23:02;100898.47;;;8.22;78.91
80853;BME280;70270;43.434;28.338;2024-02-21T10:25:47;100935.66;;;8.61;78.13
80853;BME280;70270;43.434;28.338;2024-02-21T10:28:33;100920.81;;;8.81;78.68
80853;BME280;70270;43.434;28.338;2024-02-21T10:31:25;100963.16;;;9.21;78.06
80853;BME280;70270;43.434;28.338;2024-02-21T10:34:16;100627.44;;;7.60;75.06
80853;BME280;70270;43.434;28.338;2024-02-21T10:39:47;100765.34;;;7.97;75.97
80853;BME280;70270;43.434;28.338;2024-02-21T10:42:34;100911.69;;;8.82;76.08
80853;BME280;70270;43.434;28.338;2024-02-21T10:45:19;100913.69;;;8.96;75.58
80853;BME280;70270;43.434;28.338;2024-02-21T10:48:12;100903.91;;;8.87;77.36
80853;BME280;70270;43.434;28.338;2024-02-21T10:51:03;100889.91;;;8.67;76.80
80853;BME280;70270;43.434;28.338;2024-02-21T10:53:57;100914.56;;;8.80;78.26
80853;BME280;70270;43.434;28.338;2024-02-21T10:56:47;100907.25;;;9.13;77.46
80853;BME280;70270;43.434;28.338;2024-02-21T10:59:34;100843.91;;;9.00;76.63
80853;BME280;70270;43.434;28.338;2024-02-21T11:02:22;100626.91;;;7.73;75.03
80853;BME280;70270;43.434;28.338;2024-02-21T11:05:07;100721.47;;;8.20;75.36
80853;BME280;70270;43.434;28.338;2024-02-21T11:07:51;100863.69;;;8.92;77.74
80853;BME280;70270;43.434;28.338;2024-02-21T11:10:37;100727.72;;;8.20;76.48
80853;BME280;70270;43.434;28.338;2024-02-21T11:13:32;100810.91;;;8.49;77.32
80853;BME280;70270;43.434;28.338;2024-02-21T11:16:23;100853.44;;;8.47;77.89
80853;BME280;70270;43.434;28.338;2024-02-21T11:19:27;100878.59;;;8.56;78.59
80853;BME280;70270;43.434;28.338;2024-02-21T11:22:18;100877.09;;;8.61;78.98
80853;BME280;70270;43.434;28.338;2024-02-21T11:25:07;100877.72;;;8.87;79.02
80853;BME280;70270;43.434;28.338;2024-02-21T11:28:04;100868.38;;;9.14;78.62
80853;BME280;70270;43.434;28.338;2024-02-21T11:30:49;100880.69;;;9.25;76.82
80853;BME280;70270;43.434;28.338;2024-02-21T11:33:35;100860.63;;;9.03;77.77
80853;BME280;70270;43.434;28.338;2024-02-21T11:36:26;100858.59;;;9.13;77.10
80853;BME280;70270;43.434;28.338;2024-02-21T11:39:11;100867.75;;;8.88;77.19
80853;BME280;70270;43.434;28.338;2024-02-21T11:42:06;100703.28;;;8.06;76.72
80853;BME280;70270;43.434;28.338;2024-02-21T11:44:53;100676.78;;;8.09;76.63
80853;BME280;70270;43.434;28.338;2024-02-21T11:47:42;100869.28;;;8.99;77.06
80853;BME280;70270;43.434;28.338;2024-02-21T11:53:24;100855.75;;;8.99;77.87
80853;BME280;70270;43.434;28.338;2024-02-21T11:56:11;100846.81;;;8.90;78.52
80853;BME280;70270;43.434;28.338;2024-02-21T11:58:58;100878.91;;;8.93;78.29
80853;BME280;70270;43.434;28.338;2024-02-21T12:01:43;100712.22;;;8.06;78.27
80853;BME280;70270;43.434;28.338;2024-02-21T12:04:27;100853.97;;;9.30;77.68
80853;BME280;70270;43.434;28.338;2024-02-21T12:07:14;100862.63;;;9.56;76.63
80853;BME280;70270;43.434;28.338;2024-02-21T12:09:59;100858.16;;;9.40;76.36
80853;BME280;70270;43.434;28.338;2024-02-21T12:12:44;100856.69;;;9.61;75.86
80853;BME280;70270;43.434;28.338;2024-02-21T12:15:31;100829.13;;;9.26;75.88
80853;BME280;70270;43.434;28.338;2024-02-21T12:18:15;100854.00;;;9.22;74.99
80853;BME280;70270;43.434;28.338;2024-02-21T12:21:00;100830.16;;;9.25;75.15
80853;BME280;70270;43.434;28.338;2024-02-21T12:23:45;100840.88;;;9.50;76.09
80853;BME280;70270;43.434;28.338;2024-02-21T12:26:31;100848.66;;;9.45;75.83
80853;BME280;70270;43.434;28.338;2024-02-21T12:29:16;100816.44;;;9.27;75.38
80853;BME280;70270;43.434;28.338;2024-02-21T12:32:00;100858.94;;;9.10;76.57
80853;BME280;70270;43.434;28.338;2024-02-21T12:34:45;100832.44;;;8.98;77.42
80853;BME280;70270;43.434;28.338;2024-02-21T12:37:29;100819.06;;;9.04;77.28
80853;BME280;70270;43.434;28.338;2024-02-21T12:40:14;100835.69;;;8.85;78.15
80853;BME280;70270;43.434;28.338;2024-02-21T12:43:02;100831.09;;;8.93;79.00
80853;BME280;70270;43.434;28.338;2024-02-21T12:45:47;100684.19;;;8.15;78.52
80853;BME280;70270;43.434;28.338;2024-02-21T12:48:32;100793.97;;;8.79;78.38
80853;BME280;70270;43.434;28.338;2024-02-21T12:51:17;100787.03;;;8.85;77.75
80853;BME280;70270;43.434;28.338;2024-02-21T12:54:05;100805.03;;;9.09;78.37
80853;BME280;70270;43.434;28.338;2024-02-21T12:56:49;100837.34;;;9.41;78.28
80853;BME280;70270;43.434;28.338;2024-02-21T12:59:34;100652.47;;;8.25;76.82
80853;BME280;70270;43.434;28.338;2024-02-21T13:02:18;100804.91;;;8.94;77.13
80853;BME280;70270;43.434;28.338;2024-02-21T13:05:04;100823.22;;;9.23;77.51
80853;BME280;70270;43.434;28.338;2024-02-21T13:07:49;100804.84;;;9.49;76.27
80853;BME280;70270;43.434;28.338;2024-02-21T13:10:34;100822.50;;;9.68;75.70
80853;BME280;70270;43.434;28.338;2024-02-21T13:13:20;100816.47;;;9.58;75.53
80853;BME280;70270;43.434;28.338;2024-02-21T13:16:07;100828.53;;;9.78;74.56
80853;BME280;70270;43.434;28.338;2024-02-21T13:18:51;100825.19;;;9.68;73.36
80853;BME280;70270;43.434;28.338;2024-02-21T13:21:36;100773.72;;;9.22;74.46
80853;BME280;70270;43.434;28.338;2024-02-21T13:24:20;100817.44;;;9.65;75.25
80853;BME280;70270;43.434;28.338;2024-02-21T13:27:04;100805.28;;;9.61;75.33
80853;BME280;70270;43.434;28.338;2024-02-21T13:29:49;100822.31;;;9.69;74.12
80853;BME280;70270;43.434;28.338;2024-02-21T13:32:33;100818.28;;;9.65;74.05
80853;BME280;70270;43.434;28.338;2024-02-21T13:35:18;100780.88;;;9.07;74.75
80853;BME280;70270;43.434;28.338;2024-02-21T13:38:03;100812.13;;;9.10;74.91
80853;BME280;70270;43.434;28.338;2024-02-21T13:40:48;100823.78;;;9.10;76.14
80853;BME280;70270;43.434;28.338;2024-02-21T13:43:33;100646.44;;;7.91;76.41
80853;BME280;70270;43.434;28.338;2024-02-21T13:46:17;100752.28;;;8.74;75.78
80853;BME280;70270;43.434;28.338;2024-02-21T13:49:04;100826.59;;;8.78;76.99
80853;BME280;70270;43.434;28.338;2024-02-21T13:51:49;100831.97;;;8.78;76.78
80853;BME280;70270;43.434;28.338;2024-02-21T13:54:35;100769.22;;;8.27;76.24
80853;BME280;70270;43.434;28.338;2024-02-21T13:57:20;100856.31;;;8.78;77.06
80853;BME280;70270;43.434;28.338;2024-02-21T14:00:05;100835.69;;;8.85;76.76
80853;BME280;70270;43.434;28.338;2024-02-21T14:02:56;100772.56;;;8.70;75.92
80853;BME280;70270;43.434;28.338;2024-02-21T14:05:42;100825.38;;;8.80;76.59
80853;BME280;70270;43.434;28.338;2024-02-21T14:08:26;100811.72;;;8.82;76.42
80853;BME280;70270;43.434;28.338;2024-02-21T14:11:11;100837.03;;;8.89;75.96
80853;BME280;70270;43.434;28.338;2024-02-21T14:13:55;100808.34;;;8.72;76.19
80853;BME280;70270;43.434;28.338;2024-02-21T14:16:41;100830.94;;;8.79;76.68
80853;BME280;70270;43.434;28.338;2024-02-21T14:19:26;100833.00;;;8.61;77.42
80853;BME280;70270;43.434;28.338;2024-02-21T14:22:10;100826.75;;;8.60;76.86
80853;BME280;70270;43.434;28.338;2024-02-21T14:24:57;100820.38;;;8.53;77.99
80853;BME280;70270;43.434;28.338;2024-02-21T14:27:42;100824.56;;;8.48;79.58
80853;BME280;70270;43.434;28.338;2024-02-21T14:30:28;100823.22;;;8.43;79.66